Time;durP1;ratioP1;P1;durP2;ratioP2;P2;SDS_P1;SDS_P2;PMS_P1;PMS_P2;Temp;Humidity;BMP_temperature;BMP_pressure;BME280_temperature;BME280_humidity;BME280_pressure;Samples;Min_cycle;Max_cycle;Signal;HPM_P1;HPM_P2
2022/12/22 03:27:23;;;;;;;2.57;2.40;;;;;;;;;;4994732;28;20293;-86
2022/12/22 03:29:52;;;;;;;5.07;2.73;;;;;;;;;;5013402;28;20233;-86
2022/12/22 03:32:20;;;;;;;1.33;1.33;;;;;;;;;;4995779;28;20218;-86
2022/12/22 03:34:50;;;;;;;2.13;1.73;;;;;;;;;;5009766;28;20227;-86
2022/12/22 03:37:18;;;;;;;2.30;1.50;;;;;;;;;;4979347;28;20207;-86
2022/12/22 03:39:47;;;;;;;11.77;2.83;;;;;;;;;;4982994;28;20232;-86
2022/12/22 03:47:43;;;;;;;8.47;3.80;;;;;;;;;;4965566;28;20218;-86
2022/12/22 03:50:13;;;;;;;5.53;3.80;;;;;;;;;;4979552;28;20257;-86
2022/12/22 03:52:42;;;;;;;6.23;5.53;;;;;;;;;;4981957;28;20214;-86
2022/12/22 03:55:10;;;;;;;2.40;2.30;;;;;;;;;;4998972;28;20380;-86
2022/12/22 03:57:38;;;;;;;3.63;3.50;;;;;;;;;;4985585;28;20206;-86
2022/12/22 04:00:07;;;;;;;0.60;0.60;;;;;;;;;;5015112;28;20207;-86
2022/12/22 04:02:36;;;;;;;8.77;6.47;;;;;;;;;;5002413;28;20227;-86
2022/12/22 04:05:05;;;;;;;4.93;2.47;;;;;;;;;;5016251;28;20201;-86
2022/12/22 04:07:34;;;;;;;2.60;2.50;;;;;;;;;;4980625;28;20237;-86
2022/12/22 04:12:54;;;;;;;0.70;0.70;;;;;;;;;;4984120;28;20245;-85
2022/12/22 04:15:23;;;;;;;5.80;5.37;;;;;;;;;;5011046;28;20300;-86
2022/12/22 04:17:52;;;;;;;5.43;3.50;;;;;;;;;;4998576;28;20188;-86
2022/12/22 04:20:20;;;;;;;3.30;3.10;;;;;;;;;;5010766;28;20258;-86
2022/12/22 04:22:50;;;;;;;8.20;3.23;;;;;;;;;;4989276;28;20215;-86
2022/12/22 04:25:19;;;;;;;1.60;1.60;;;;;;;;;;4997605;28;20207;-86
2022/12/22 04:27:47;;;;;;;0.90;0.90;;;;;;;;;;4995048;28;20216;-86
2022/12/22 04:30:16;;;;;;;2.30;2.10;;;;;;;;;;4996629;28;20199;-86
2022/12/22 04:32:44;;;;;;;0.50;0.50;;;;;;;;;;4978936;28;20301;-86
2022/12/22 04:35:13;;;;;;;18.90;4.40;;;;;;;;;;4971835;28;20223;-85
2022/12/22 04:37:41;;;;;;;0.60;0.60;;;;;;;;;;5014357;28;20264;-86
2022/12/22 04:40:11;;;;;;;9.30;8.13;;;;;;;;;;5007672;28;20295;-86
2022/12/22 04:42:39;;;;;;;5.00;3.13;;;;;;;;;;4978861;28;20246;-86
2022/12/22 04:45:08;;;;;;;2.90;2.70;;;;;;;;;;4990484;28;20297;-86
2022/12/22 04:47:37;;;;;;;0.60;0.60;;;;;;;;;;4992293;28;20276;-86
2022/12/22 04:50:05;;;;;;;20.27;9.77;;;;;;;;;;5007469;28;20210;-86
2022/12/22 04:52:34;;;;;;;2.63;2.50;;;;;;;;;;4989457;28;20305;-86
2022/12/22 04:55:02;;;;;;;6.37;5.77;;;;;;;;;;4985331;28;20299;-86
2022/12/22 04:57:32;;;;;;;3.60;2.10;;;;;;;;;;4980424;28;20202;-86
2022/12/22 05:00:08;;;;;;;4.77;4.53;;;;;;;;;;5003936;28;20209;-86
2022/12/22 05:02:37;;;;;;;8.13;4.67;;;;;;;;;;4991250;28;20207;-86
2022/12/22 05:05:06;;;;;;;3.93;3.70;;;;;;;;;;4995424;28;20220;-84
2022/12/22 05:07:34;;;;;;;2.60;2.50;;;;;;;;;;5013075;28;20201;-84
2022/12/22 05:10:03;;;;;;;6.93;3.23;;;;;;;;;;4997480;28;20210;-84
2022/12/22 05:15:18;;;;;;;1.33;1.33;;;;;;;;;;4995297;28;20240;-84
2022/12/22 05:17:47;;;;;;;2.33;2.03;;;;;;;;;;4987093;28;20300;-84
2022/12/22 05:20:15;;;;;;;0.60;0.60;;;;;;;;;;4996467;28;20266;-84
2022/12/22 05:22:43;;;;;;;12.33;6.90;;;;;;;;;;4987437;28;20201;-84
2022/12/22 05:25:15;;;;;;;5.00;4.50;;;;;;;;;;4997650;28;20202;-84
2022/12/22 05:27:45;;;;;;;0.60;0.60;;;;;;;;;;5005618;28;20213;-84
2022/12/22 05:30:14;;;;;;;1.33;1.33;;;;;;;;;;4992141;28;20241;-84
2022/12/22 05:32:43;;;;;;;4.13;3.83;;;;;;;;;;4989393;28;20205;-84
2022/12/22 05:35:11;;;;;;;0.50;0.50;;;;;;;;;;4999681;28;20214;-86
2022/12/22 05:37:39;;;;;;;0.60;0.60;;;;;;;;;;5000809;28;20289;-87
2022/12/22 05:40:08;;;;;;;0.80;0.80;;;;;;;;;;4984270;28;20232;-86
2022/12/22 05:42:37;;;;;;;0.80;0.80;;;;;;;;;;5013028;28;20279;-86
2022/12/22 05:45:12;;;;;;;1.53;1.53;;;;;;;;;;4988870;28;20196;-87
2022/12/22 05:47:40;;;;;;;4.40;4.03;;;;;;;;;;5014264;28;20275;-86
2022/12/22 05:50:09;;;;;;;2.07;2.00;;;;;;;;;;4987807;28;20207;-84
2022/12/22 05:52:38;;;;;;;2.20;2.10;;;;;;;;;;4996634;28;20208;-84
2022/12/22 05:55:06;;;;;;;1.00;1.00;;;;;;;;;;5013554;28;20216;-84
2022/12/22 05:57:35;;;;;;;2.20;2.07;;;;;;;;;;4996259;28;20204;-85
2022/12/22 06:00:04;;;;;;;2.10;2.00;;;;;;;;;;4987607;28;20201;-84
2022/12/22 06:02:34;;;;;;;2.70;2.60;;;;;;;;;;4992490;28;20216;-84
2022/12/22 06:05:03;;;;;;;2.03;1.93;;;;;;;;;;4985427;28;20223;-84
2022/12/22 06:07:32;;;;;;;3.07;2.93;;;;;;;;;;5011854;28;20254;-84
2022/12/22 06:10:00;;;;;;;3.10;2.80;;;;;;;;;;5013109;28;20285;-84
2022/12/22 06:12:38;;;;;;;4.43;3.47;;;;;;;;;;5002240;28;20232;-84
2022/12/22 06:15:08;;;;;;;17.03;11.23;;;;;;;;;;4974068;28;20264;-84
2022/12/22 06:17:38;;;;;;;4.13;3.13;;;;;;;;;;4993342;28;20203;-84
2022/12/22 06:20:13;;;;;;;1.70;1.60;;;;;;;;;;4977240;28;20241;-84
2022/12/22 06:22:43;;;;;;;14.23;7.03;;;;;;;;;;4993260;28;20233;-84
2022/12/22 06:25:11;;;;;;;10.37;6.30;;;;;;;;;;4997979;28;20207;-84
2022/12/22 06:27:46;;;;;;;18.27;10.50;;;;;;;;;;5008712;28;20216;-86
2022/12/22 06:30:15;;;;;;;4.50;3.60;;;;;;;;;;4994535;28;20212;-87
2022/12/22 06:32:45;;;;;;;5.37;4.03;;;;;;;;;;5001166;28;20216;-86
2022/12/22 06:35:13;;;;;;;1.80;1.70;;;;;;;;;;5006393;28;20213;-87
2022/12/22 06:37:42;;;;;;;1.50;1.43;;;;;;;;;;5005485;28;20201;-86
2022/12/22 06:40:11;;;;;;;5.10;2.23;;;;;;;;;;4970972;28;20196;-86
2022/12/22 06:45:35;;;;;;;3.50;1.67;;;;;;;;;;4992862;28;20256;-86
2022/12/22 06:48:06;;;;;;;0.83;0.83;;;;;;;;;;4993978;28;20208;-86
2022/12/22 06:50:34;;;;;;;1.90;1.80;;;;;;;;;;4983740;28;20209;-87
2022/12/22 06:53:03;;;;;;;2.17;1.97;;;;;;;;;;4995285;28;20283;-86
2022/12/22 06:55:32;;;;;;;2.13;1.60;;;;;;;;;;5012257;28;20208;-86
2022/12/22 06:58:00;;;;;;;2.17;2.00;;;;;;;;;;4999399;28;20262;-87
2022/12/22 07:00:29;;;;;;;1.30;1.20;;;;;;;;;;4983524;28;20236;-87
2022/12/22 07:02:57;;;;;;;2.10;2.00;;;;;;;;;;5008574;28;20206;-86
2022/12/22 07:05:29;;;;;;;1.07;1.07;;;;;;;;;;4998776;28;20208;-86
2022/12/22 07:07:57;;;;;;;0.87;0.87;;;;;;;;;;4990917;28;20218;-87
2022/12/22 07:13:22;;;;;;;1.37;1.20;;;;;;;;;;4979849;28;20228;-87
2022/12/22 07:15:51;;;;;;;0.70;0.70;;;;;;;;;;4967852;28;20237;-88
2022/12/22 07:18:28;;;;;;;1.20;1.20;;;;;;;;;;4993052;28;20203;-88
2022/12/22 07:20:58;;;;;;;4.23;1.20;;;;;;;;;;4997419;28;20216;-88
2022/12/22 07:23:26;;;;;;;1.10;1.10;;;;;;;;;;4995960;28;20204;-88
2022/12/22 07:25:55;;;;;;;1.00;1.00;;;;;;;;;;4999428;28;20205;-87
2022/12/22 07:28:23;;;;;;;3.63;2.40;;;;;;;;;;4998867;28;20225;-87
2022/12/22 07:30:52;;;;;;;8.40;3.40;;;;;;;;;;4995043;28;20215;-87
2022/12/22 07:33:20;;;;;;;6.67;2.30;;;;;;;;;;4999938;28;20227;-87
2022/12/22 07:35:49;;;;;;;10.70;4.00;;;;;;;;;;5001528;28;20248;-87
2022/12/22 07:38:19;;;;;;;4.90;2.53;;;;;;;;;;4997865;28;20204;-88
2022/12/22 07:40:48;;;;;;;2.03;1.83;;;;;;;;;;4999321;28;20295;-88
2022/12/22 07:43:19;;;;;;;1.40;1.37;;;;;;;;;;5010246;28;20201;-88
2022/12/22 07:45:47;;;;;;;0.60;0.60;;;;;;;;;;4979489;28;20290;-88
2022/12/22 07:51:04;;;;;;;3.50;1.27;;;;;;;;;;4999462;28;20253;-87
2022/12/22 07:53:34;;;;;;;1.17;1.17;;;;;;;;;;5014906;28;20227;-86
2022/12/22 07:56:04;;;;;;;1.00;1.00;;;;;;;;;;4981868;28;20220;-86
2022/12/22 07:58:32;;;;;;;0.60;0.60;;;;;;;;;;4979743;28;20208;-87
2022/12/22 08:01:01;;;;;;;2.00;1.23;;;;;;;;;;4992479;28;20204;-86
2022/12/22 08:03:30;;;;;;;0.70;0.70;;;;;;;;;;4990933;28;20211;-87
2022/12/22 08:05:58;;;;;;;2.03;1.93;;;;;;;;;;4997037;28;20205;-87
2022/12/22 08:08:26;;;;;;;1.57;1.47;;;;;;;;;;4991351;28;20208;-86
2022/12/22 08:10:56;;;;;;;1.57;1.47;;;;;;;;;;5008028;28;20205;-87
2022/12/22 08:13:25;;;;;;;1.47;1.37;;;;;;;;;;4978304;28;20235;-86
2022/12/22 08:15:53;;;;;;;4.07;2.17;;;;;;;;;;4982260;28;20293;-84
2022/12/22 08:18:22;;;;;;;5.97;2.13;;;;;;;;;;4997206;28;20295;-84
2022/12/22 08:20:50;;;;;;;2.90;1.90;;;;;;;;;;4983211;28;20204;-84
2022/12/22 08:23:18;;;;;;;0.90;0.90;;;;;;;;;;4994961;28;20266;-84
2022/12/22 08:25:49;;;;;;;0.80;0.80;;;;;;;;;;4986431;28;20309;-84
2022/12/22 08:28:19;;;;;;;4.70;2.97;;;;;;;;;;4988595;28;20200;-84
2022/12/22 08:30:48;;;;;;;0.63;0.63;;;;;;;;;;4976205;28;20219;-84
2022/12/22 08:33:17;;;;;;;0.70;0.70;;;;;;;;;;4976677;28;20196;-84
2022/12/22 08:35:45;;;;;;;0.60;0.60;;;;;;;;;;4976287;28;20215;-84
2022/12/22 08:38:14;;;;;;;32.17;6.23;;;;;;;;;;4989561;28;20222;-84
2022/12/22 08:40:44;;;;;;;0.60;0.60;;;;;;;;;;4986572;28;20208;-84
2022/12/22 08:43:13;;;;;;;0.60;0.60;;;;;;;;;;4993159;28;20216;-84
2022/12/22 08:45:43;;;;;;;0.83;0.83;;;;;;;;;;4987131;28;20206;-84
2022/12/22 08:48:12;;;;;;;0.60;0.60;;;;;;;;;;4976172;28;20226;-84
2022/12/22 08:50:40;;;;;;;0.83;0.83;;;;;;;;;;4990712;28;20209;-85
2022/12/22 08:53:09;;;;;;;0.60;0.60;;;;;;;;;;4981703;28;20244;-85
2022/12/22 08:55:57;;;;;;;0.60;0.60;;;;;;;;;;4978055;28;20213;-85
2022/12/22 08:58:26;;;;;;;0.90;0.90;;;;;;;;;;4975217;28;20233;-85
2022/12/22 09:00:58;;;;;;;0.67;0.67;;;;;;;;;;4968971;28;20211;-86
2022/12/22 09:03:27;;;;;;;0.60;0.60;;;;;;;;;;4974884;28;20314;-85
2022/12/22 09:06:01;;;;;;;3.30;1.43;;;;;;;;;;4973724;28;20273;-83
2022/12/22 09:08:29;;;;;;;1.23;1.10;;;;;;;;;;4984490;28;20201;-88
2022/12/22 09:11:03;;;;;;;0.80;0.80;;;;;;;;;;4967530;28;20276;-86
2022/12/22 09:13:31;;;;;;;1.90;1.80;;;;;;;;;;4976121;28;20249;-86
2022/12/22 09:16:05;;;;;;;2.00;1.37;;;;;;;;;;4975545;28;20249;-84
2022/12/22 09:18:34;;;;;;;3.77;1.90;;;;;;;;;;4982035;28;20214;-85
2022/12/22 09:21:03;;;;;;;0.80;0.80;;;;;;;;;;4981445;28;20202;-85
2022/12/22 09:23:39;;;;;;;0.67;0.67;;;;;;;;;;4985026;28;20293;-88
2022/12/22 09:26:08;;;;;;;0.97;0.97;;;;;;;;;;4984747;28;20203;-87
2022/12/22 09:28:37;;;;;;;2.30;1.57;;;;;;;;;;4992582;28;20206;-88
2022/12/22 09:31:10;;;;;;;1.27;1.17;;;;;;;;;;5001046;28;20207;-87
2022/12/22 09:33:39;;;;;;;5.07;3.23;;;;;;;;;;4986944;28;20235;-86
2022/12/22 09:36:09;;;;;;;0.60;0.60;;;;;;;;;;4976959;28;20230;-89
2022/12/22 09:38:39;;;;;;;1.80;0.93;;;;;;;;;;4971996;28;20217;-86
2022/12/22 09:41:08;;;;;;;3.50;3.37;;;;;;;;;;4969467;28;20215;-90
2022/12/22 09:43:38;;;;;;;1.13;0.77;;;;;;;;;;4975394;28;20215;-88
2022/12/22 09:46:07;;;;;;;1.97;1.70;;;;;;;;;;4982262;28;20223;-91
2022/12/22 09:48:38;;;;;;;1.27;1.27;;;;;;;;;;4982199;28;20253;-89
2022/12/22 09:51:12;;;;;;;1.17;0.70;;;;;;;;;;4971332;28;20219;-90
2022/12/22 09:53:41;;;;;;;0.60;0.60;;;;;;;;;;4992464;28;20200;-90
2022/12/22 09:56:12;;;;;;;1.80;1.67;;;;;;;;;;4977816;28;20203;-90
2022/12/22 09:58:40;;;;;;;7.73;4.30;;;;;;;;;;4967027;28;20215;-88
2022/12/22 10:01:15;;;;;;;3.73;3.43;;;;;;;;;;4970928;28;20223;-86
2022/12/22 10:03:47;;;;;;;3.07;2.10;;;;;;;;;;4967385;28;20209;-87
2022/12/22 10:06:18;;;;;;;0.60;0.60;;;;;;;;;;4996625;28;20240;-89
2022/12/22 10:08:46;;;;;;;3.43;1.70;;;;;;;;;;4985586;28;20202;-86
2022/12/22 10:11:16;;;;;;;0.67;0.67;;;;;;;;;;4969447;28;20214;-89
2022/12/22 10:13:45;;;;;;;1.83;1.53;;;;;;;;;;4991525;28;20217;-88
2022/12/22 10:16:17;;;;;;;5.57;1.83;;;;;;;;;;4978524;28;20241;-89
2022/12/22 10:18:56;;;;;;;4.60;2.40;;;;;;;;;;4986674;28;20230;-88
2022/12/22 10:21:25;;;;;;;0.97;0.90;;;;;;;;;;4970300;28;20210;-88
2022/12/22 10:23:54;;;;;;;4.83;2.63;;;;;;;;;;4973985;28;20245;-86
2022/12/22 10:26:24;;;;;;;6.60;2.67;;;;;;;;;;4977224;28;20228;-85
2022/12/22 10:29:00;;;;;;;5.43;1.17;;;;;;;;;;4978089;28;20209;-86
2022/12/22 10:31:29;;;;;;;4.00;2.27;;;;;;;;;;4969123;28;20236;-86
2022/12/22 10:34:12;;;;;;;4.23;1.30;;;;;;;;;;4968289;28;20216;-87
2022/12/22 10:36:47;;;;;;;1.27;1.00;;;;;;;;;;4971828;28;20211;-85
2022/12/22 10:39:20;;;;;;;2.27;1.97;;;;;;;;;;4995969;28;20227;-86
2022/12/22 10:41:50;;;;;;;1.57;1.47;;;;;;;;;;4975177;28;20235;-86
2022/12/22 10:44:20;;;;;;;2.07;1.20;;;;;;;;;;4981637;28;20318;-85
2022/12/22 10:46:49;;;;;;;1.50;1.47;;;;;;;;;;4962806;28;20203;-85
2022/12/22 10:49:21;;;;;;;2.77;2.27;;;;;;;;;;4971019;28;20204;-86
2022/12/22 10:51:51;;;;;;;4.20;2.80;;;;;;;;;;4968720;28;20207;-87
2022/12/22 10:54:26;;;;;;;2.77;1.43;;;;;;;;;;4968619;28;20215;-86
2022/12/22 10:57:21;;;;;;;2.00;1.50;;;;;;;;;;4971424;28;20292;-88
2022/12/22 10:59:50;;;;;;;3.57;1.30;;;;;;;;;;4973782;28;20226;-86
2022/12/22 11:02:27;;;;;;;10.43;2.77;;;;;;;;;;4973433;28;20215;-88
2022/12/22 11:05:01;;;;;;;1.57;1.27;;;;;;;;;;4975926;28;20212;-88
2022/12/22 11:07:31;;;;;;;5.70;2.13;;;;;;;;;;4970929;28;20297;-89
2022/12/22 11:09:59;;;;;;;5.63;2.10;;;;;;;;;;4972644;28;20284;-91
2022/12/22 11:12:36;;;;;;;1.57;1.47;;;;;;;;;;4976344;28;20221;-90
2022/12/22 11:15:07;;;;;;;1.57;1.43;;;;;;;;;;4980307;28;20241;-85
2022/12/22 11:17:40;;;;;;;3.33;1.60;;;;;;;;;;4970196;28;20204;-85
2022/12/22 11:20:25;;;;;;;1.13;1.10;;;;;;;;;;4991752;28;20199;-87
2022/12/22 11:22:58;;;;;;;1.47;1.30;;;;;;;;;;4969848;28;20212;-85
2022/12/22 11:25:33;;;;;;;3.30;2.13;;;;;;;;;;4992858;28;20221;-86
2022/12/22 11:28:11;;;;;;;4.03;1.73;;;;;;;;;;4971318;28;20191;-85
2022/12/22 11:30:45;;;;;;;1.63;1.53;;;;;;;;;;4986119;28;20217;-86
2022/12/22 11:33:19;;;;;;;1.43;1.33;;;;;;;;;;4969812;28;20354;-86
2022/12/22 11:35:58;;;;;;;1.27;1.20;;;;;;;;;;4971487;28;20199;-86
2022/12/22 11:38:33;;;;;;;3.20;1.90;;;;;;;;;;4971654;28;20242;-84
2022/12/22 11:41:08;;;;;;;9.20;1.83;;;;;;;;;;4973475;28;20215;-88
2022/12/22 11:43:43;;;;;;;1.87;1.77;;;;;;;;;;4970540;28;20199;-85
2022/12/22 11:46:15;;;;;;;8.80;2.50;;;;;;;;;;4970227;28;20211;-86
2022/12/22 11:49:06;;;;;;;3.50;1.63;;;;;;;;;;4986678;28;20201;-87
2022/12/22 11:51:52;;;;;;;1.87;1.37;;;;;;;;;;4971790;28;20274;-86
2022/12/22 11:54:44;;;;;;;2.97;1.87;;;;;;;;;;4970508;28;20219;-88
2022/12/22 11:57:19;;;;;;;4.60;2.33;;;;;;;;;;4965957;28;20266;-89
2022/12/22 11:59:51;;;;;;;3.10;1.77;;;;;;;;;;4972445;28;20274;-89
2022/12/22 12:02:43;;;;;;;2.97;1.60;;;;;;;;;;4971633;28;20250;-90
2022/12/22 12:05:18;;;;;;;3.40;2.03;;;;;;;;;;4977141;28;20211;-88
2022/12/22 12:07:51;;;;;;;2.20;1.90;;;;;;;;;;4971392;28;20297;-87
2022/12/22 12:10:24;;;;;;;2.77;1.87;;;;;;;;;;4967071;28;20215;-88
2022/12/22 12:12:56;;;;;;;4.27;1.43;;;;;;;;;;4971330;28;20228;-89
2022/12/22 12:15:31;;;;;;;3.50;1.83;;;;;;;;;;4973644;28;20247;-89
2022/12/22 12:18:13;;;;;;;1.90;1.17;;;;;;;;;;4971241;28;20226;-90
2022/12/22 12:20:48;;;;;;;2.67;1.93;;;;;;;;;;4984813;28;20293;-89
2022/12/22 12:23:23;;;;;;;2.30;2.10;;;;;;;;;;4971648;28;20205;-91
2022/12/22 12:25:55;;;;;;;8.10;5.20;;;;;;;;;;4970639;28;20206;-87
2022/12/22 12:28:33;;;;;;;7.17;4.63;;;;;;;;;;4968149;28;20211;-91
2022/12/22 12:31:04;;;;;;;2.73;2.53;;;;;;;;;;4982850;28;20217;-87
2022/12/22 12:33:36;;;;;;;5.03;4.47;;;;;;;;;;4982693;28;20214;-89
2022/12/22 12:36:09;;;;;;;3.00;2.77;;;;;;;;;;4966369;28;20210;-88
2022/12/22 12:38:41;;;;;;;8.40;4.93;;;;;;;;;;4979051;28;20223;-89
2022/12/22 12:41:33;;;;;;;10.07;4.57;;;;;;;;;;4984848;28;20298;-89
2022/12/22 12:44:01;;;;;;;8.63;6.77;;;;;;;;;;4967747;28;20264;-90
2022/12/22 12:46:55;;;;;;;7.10;4.77;;;;;;;;;;4970966;28;20201;-93
2022/12/22 12:49:43;;;;;;;8.63;6.40;;;;;;;;;;4967597;28;20401;-89
2022/12/22 12:52:12;;;;;;;5.60;4.40;;;;;;;;;;4971015;28;20213;-91
2022/12/22 12:54:41;;;;;;;4.87;3.97;;;;;;;;;;4985415;28;20303;-90
2022/12/22 12:57:23;;;;;;;4.60;3.77;;;;;;;;;;4983336;28;20201;-90
2022/12/22 12:59:52;;;;;;;8.97;4.87;;;;;;;;;;4969500;28;20231;-88
2022/12/22 13:02:36;;;;;;;6.17;4.73;;;;;;;;;;4973092;28;20208;-88
2022/12/22 13:05:26;;;;;;;12.33;8.27;;;;;;;;;;4967937;28;20233;-90
2022/12/22 13:08:07;;;;;;;14.13;12.63;;;;;;;;;;4971763;28;20210;-89
2022/12/22 13:10:37;;;;;;;11.73;5.07;;;;;;;;;;4983726;28;20201;-90
2022/12/22 13:13:05;;;;;;;7.63;5.77;;;;;;;;;;4966441;28;20224;-87
2022/12/22 13:15:34;;;;;;;3.17;2.70;;;;;;;;;;4969957;28;20260;-88
2022/12/22 13:18:09;;;;;;;16.33;8.20;;;;;;;;;;4970752;28;20207;-89
2022/12/22 13:20:38;;;;;;;5.40;4.77;;;;;;;;;;4995397;28;20313;-90
2022/12/22 13:23:14;;;;;;;12.90;5.20;;;;;;;;;;4986836;28;20256;-89
2022/12/22 13:25:51;;;;;;;9.17;6.53;;;;;;;;;;4969412;28;20208;-93
2022/12/22 13:28:22;;;;;;;17.97;6.30;;;;;;;;;;4968773;28;20205;-89
2022/12/22 13:30:53;;;;;;;11.87;4.47;;;;;;;;;;4953855;28;20217;-89
2022/12/22 13:33:25;;;;;;;6.67;2.33;;;;;;;;;;4971724;28;20213;-89
2022/12/22 13:35:57;;;;;;;12.87;4.93;;;;;;;;;;4969189;28;20295;-85
2022/12/22 13:38:29;;;;;;;4.63;3.70;;;;;;;;;;4975509;28;20240;-85
2022/12/22 13:41:00;;;;;;;21.90;11.30;;;;;;;;;;4972036;28;20311;-88
2022/12/22 13:43:30;;;;;;;15.97;9.83;;;;;;;;;;4986919;28;20214;-92
2022/12/22 13:46:00;;;;;;;5.70;2.83;;;;;;;;;;4984028;28;20253;-90
2022/12/22 13:48:33;;;;;;;11.83;8.80;;;;;;;;;;4968541;28;20224;-91
2022/12/22 13:51:15;;;;;;;6.83;5.50;;;;;;;;;;4962048;28;20205;-90
2022/12/22 13:53:45;;;;;;;5.07;3.77;;;;;;;;;;4968913;28;20240;-86
2022/12/22 13:56:36;;;;;;;10.00;5.73;;;;;;;;;;4963979;28;20214;-89
2022/12/22 13:59:05;;;;;;;15.20;8.33;;;;;;;;;;4966940;28;20209;-89
2022/12/22 14:01:34;;;;;;;6.00;4.73;;;;;;;;;;4968770;28;20205;-90
2022/12/22 14:04:06;;;;;;;9.67;6.33;;;;;;;;;;4967729;28;20203;-90
2022/12/22 14:06:36;;;;;;;14.10;8.30;;;;;;;;;;4968308;28;20203;-87
2022/12/22 14:09:15;;;;;;;11.40;6.67;;;;;;;;;;4969948;28;20299;-87
2022/12/22 14:11:48;;;;;;;13.20;9.23;;;;;;;;;;4963781;28;20229;-89
2022/12/22 14:14:26;;;;;;;10.33;9.23;;;;;;;;;;4980196;28;20205;-89
2022/12/22 14:16:57;;;;;;;16.63;10.60;;;;;;;;;;4965568;28;20235;-87
2022/12/22 14:19:31;;;;;;;14.17;10.07;;;;;;;;;;4985838;28;20229;-89
2022/12/22 14:22:05;;;;;;;21.53;12.33;;;;;;;;;;4965244;28;20221;-91
2022/12/22 14:24:36;;;;;;;15.43;11.73;;;;;;;;;;4967798;28;20202;-86
2022/12/22 14:27:08;;;;;;;16.37;11.83;;;;;;;;;;4972310;28;20252;-88
2022/12/22 14:29:36;;;;;;;16.47;12.00;;;;;;;;;;4967890;28;20213;-86
2022/12/22 14:32:06;;;;;;;20.80;16.63;;;;;;;;;;4985379;28;20217;-86
2022/12/22 14:34:36;;;;;;;18.30;11.73;;;;;;;;;;4966889;28;20216;-88
2022/12/22 14:37:10;;;;;;;6.23;5.40;;;;;;;;;;4971587;28;20196;-87
2022/12/22 14:39:39;;;;;;;13.77;10.10;;;;;;;;;;4970034;28;20221;-89
2022/12/22 14:42:13;;;;;;;14.70;10.33;;;;;;;;;;4966475;28;20205;-88
2022/12/22 14:44:44;;;;;;;18.30;13.27;;;;;;;;;;4962546;28;20201;-87
2022/12/22 14:47:16;;;;;;;20.30;16.43;;;;;;;;;;4970279;28;20213;-88
2022/12/22 14:49:47;;;;;;;9.80;7.30;;;;;;;;;;4969681;28;20186;-85
2022/12/22 14:52:19;;;;;;;14.63;12.80;;;;;;;;;;4964185;28;20215;-88
2022/12/22 14:54:48;;;;;;;17.97;13.47;;;;;;;;;;4973511;28;20203;-87
2022/12/22 14:57:20;;;;;;;20.83;15.77;;;;;;;;;;4969147;28;20264;-87
2022/12/22 14:59:58;;;;;;;22.63;15.03;;;;;;;;;;4970463;28;20230;-88
2022/12/22 15:02:29;;;;;;;19.80;12.60;;;;;;;;;;4969105;28;20295;-85
2022/12/22 15:05:14;;;;;;;14.50;9.93;;;;;;;;;;4985000;28;20212;-88
2022/12/22 15:07:44;;;;;;;20.80;14.03;;;;;;;;;;4970111;28;20215;-87
2022/12/22 15:10:38;;;;;;;16.83;9.17;;;;;;;;;;4986969;28;20205;-88
2022/12/22 15:13:10;;;;;;;25.27;15.50;;;;;;;;;;4978225;28;20231;-88
2022/12/22 15:15:39;;;;;;;20.23;14.63;;;;;;;;;;4970225;28;20296;-86
2022/12/22 15:18:12;;;;;;;22.57;15.17;;;;;;;;;;4969197;28;20201;-86
2022/12/22 15:20:42;;;;;;;15.27;9.57;;;;;;;;;;4990685;28;20216;-86
2022/12/22 15:23:12;;;;;;;15.40;9.83;;;;;;;;;;4981871;28;20210;-86
2022/12/22 15:25:40;;;;;;;25.93;16.80;;;;;;;;;;4975319;28;20233;-87
2022/12/22 15:28:11;;;;;;;28.37;13.63;;;;;;;;;;4977276;28;20196;-87
2022/12/22 15:30:40;;;;;;;32.17;19.20;;;;;;;;;;4973318;28;20206;-88
2022/12/22 15:33:11;;;;;;;30.40;19.93;;;;;;;;;;4992927;28;20228;-90
2022/12/22 15:35:40;;;;;;;27.60;17.03;;;;;;;;;;4972721;28;20208;-90
2022/12/22 15:38:12;;;;;;;32.30;18.53;;;;;;;;;;4985918;28;20209;-87
2022/12/22 15:40:41;;;;;;;29.87;16.37;;;;;;;;;;4992909;28;20209;-90
2022/12/22 15:43:10;;;;;;;31.43;17.80;;;;;;;;;;4977853;28;20285;-87
2022/12/22 15:45:59;;;;;;;29.47;19.47;;;;;;;;;;4993558;28;20200;-89
2022/12/22 15:48:29;;;;;;;32.07;21.03;;;;;;;;;;4973366;28;20204;-89
2022/12/22 15:50:58;;;;;;;26.97;20.40;;;;;;;;;;4990706;28;20208;-87
2022/12/22 15:53:28;;;;;;;31.77;19.57;;;;;;;;;;4972553;28;20206;-90
2022/12/22 15:55:57;;;;;;;6.77;4.40;;;;;;;;;;4974753;28;20209;-89
2022/12/22 15:58:27;;;;;;;25.33;16.00;;;;;;;;;;4986485;28;20205;-90
2022/12/22 16:00:56;;;;;;;31.27;22.90;;;;;;;;;;4989908;28;20225;-88
2022/12/22 16:03:24;;;;;;;33.30;22.77;;;;;;;;;;4972660;28;20209;-88
2022/12/22 16:05:53;;;;;;;36.60;22.57;;;;;;;;;;4972546;28;20259;-87
2022/12/22 16:08:24;;;;;;;35.20;24.50;;;;;;;;;;4989355;28;20207;-89
2022/12/22 16:10:54;;;;;;;33.40;18.27;;;;;;;;;;4971806;28;20196;-87
2022/12/22 16:13:25;;;;;;;32.03;17.87;;;;;;;;;;4972785;28;20248;-86
2022/12/22 16:15:56;;;;;;;18.70;11.87;;;;;;;;;;4977940;28;20274;-89
2022/12/22 16:18:25;;;;;;;42.73;25.37;;;;;;;;;;4968419;28;20226;-90
2022/12/22 16:21:08;;;;;;;37.87;18.97;;;;;;;;;;4977649;28;20244;-86
2022/12/22 16:23:38;;;;;;;52.03;31.60;;;;;;;;;;4989659;28;20252;-90
2022/12/22 16:26:09;;;;;;;41.17;22.00;;;;;;;;;;5000309;28;20204;-87
2022/12/22 16:28:37;;;;;;;42.57;20.47;;;;;;;;;;4973669;28;20208;-89
2022/12/22 16:31:11;;;;;;;41.80;23.70;;;;;;;;;;5003545;28;20189;-87
2022/12/22 16:33:41;;;;;;;48.03;23.17;;;;;;;;;;4992317;28;20203;-87
2022/12/22 16:36:10;;;;;;;40.20;21.17;;;;;;;;;;4995163;28;20258;-89
2022/12/22 16:38:40;;;;;;;35.00;19.80;;;;;;;;;;5003456;28;20206;-90
2022/12/22 16:41:16;;;;;;;36.07;18.93;;;;;;;;;;4999635;28;20207;-90
2022/12/22 16:43:46;;;;;;;48.77;26.03;;;;;;;;;;4981555;28;20212;-90
2022/12/22 16:46:32;;;;;;;4.67;2.90;;;;;;;;;;4992577;28;20283;-88
2022/12/22 16:49:01;;;;;;;15.63;10.20;;;;;;;;;;4989839;28;20228;-91
2022/12/22 16:51:32;;;;;;;17.37;10.47;;;;;;;;;;4979097;28;20200;-88
2022/12/22 16:54:01;;;;;;;42.43;24.40;;;;;;;;;;4996809;28;20233;-89
2022/12/22 16:56:31;;;;;;;20.67;12.53;;;;;;;;;;5000780;28;20236;-89
2022/12/22 16:59:03;;;;;;;21.13;10.70;;;;;;;;;;4995690;28;20204;-90
2022/12/22 17:01:34;;;;;;;22.00;15.20;;;;;;;;;;4998597;28;20300;-89
2022/12/22 17:04:05;;;;;;;11.73;7.43;;;;;;;;;;4996699;28;20221;-88
2022/12/22 17:06:33;;;;;;;15.80;10.97;;;;;;;;;;4982782;28;20215;-90
2022/12/22 17:09:02;;;;;;;9.37;6.37;;;;;;;;;;4981447;28;20243;-89
2022/12/22 17:11:33;;;;;;;16.73;11.90;;;;;;;;;;4995593;28;20204;-89
2022/12/22 17:14:04;;;;;;;16.97;9.73;;;;;;;;;;4981195;28;20219;-90
2022/12/22 17:16:32;;;;;;;15.10;11.07;;;;;;;;;;4994525;28;20232;-90
2022/12/22 17:19:01;;;;;;;14.33;9.00;;;;;;;;;;4995797;28;20243;-87
2022/12/22 17:21:29;;;;;;;17.47;9.30;;;;;;;;;;4990813;28;20220;-89
2022/12/22 17:24:02;;;;;;;2.90;2.40;;;;;;;;;;4991365;28;20209;-89
2022/12/22 17:26:34;;;;;;;14.93;10.23;;;;;;;;;;4977859;28;20226;-87
2022/12/22 17:29:02;;;;;;;5.40;4.03;;;;;;;;;;4996950;28;20233;-91
2022/12/22 17:31:31;;;;;;;18.70;12.87;;;;;;;;;;4976532;28;20231;-90
2022/12/22 17:33:59;;;;;;;2.40;2.30;;;;;;;;;;4980016;28;20192;-87
2022/12/22 17:36:31;;;;;;;11.10;4.30;;;;;;;;;;4978429;28;20195;-88
2022/12/22 17:39:00;;;;;;;10.00;6.00;;;;;;;;;;5002516;28;20208;-88
2022/12/22 17:41:28;;;;;;;19.47;12.40;;;;;;;;;;4993283;28;20223;-87
2022/12/22 17:43:58;;;;;;;38.87;21.73;;;;;;;;;;4980069;28;20216;-90
2022/12/22 17:46:26;;;;;;;32.97;19.40;;;;;;;;;;4981982;28;20206;-88
2022/12/22 17:48:55;;;;;;;37.40;20.47;;;;;;;;;;5001252;28;20204;-89
2022/12/22 17:51:24;;;;;;;44.23;22.30;;;;;;;;;;4979484;28;20202;-88
2022/12/22 17:53:53;;;;;;;29.83;17.10;;;;;;;;;;5003980;28;20196;-87
2022/12/22 17:56:22;;;;;;;6.57;4.70;;;;;;;;;;5000521;28;20208;-88
2022/12/22 17:58:51;;;;;;;19.17;10.27;;;;;;;;;;5001889;28;20211;-89
2022/12/22 18:01:25;;;;;;;20.73;11.60;;;;;;;;;;4977561;28;20208;-91
2022/12/22 18:03:54;;;;;;;30.87;16.93;;;;;;;;;;4993739;28;20216;-88
2022/12/22 18:06:24;;;;;;;26.50;14.87;;;;;;;;;;5005477;28;20200;-90
2022/12/22 18:08:53;;;;;;;30.67;16.23;;;;;;;;;;4992393;28;20192;-89
2022/12/22 18:11:22;;;;;;;61.87;31.43;;;;;;;;;;4997449;28;20234;-90
2022/12/22 18:13:53;;;;;;;41.47;18.97;;;;;;;;;;5000917;28;20295;-90
2022/12/22 18:16:21;;;;;;;26.97;14.10;;;;;;;;;;4996834;28;20240;-88
2022/12/22 18:18:52;;;;;;;58.47;26.00;;;;;;;;;;4977248;28;20309;-88
2022/12/22 18:21:21;;;;;;;59.03;27.80;;;;;;;;;;4970683;28;20276;-89
2022/12/22 18:23:50;;;;;;;39.70;19.80;;;;;;;;;;5002999;28;20238;-89
2022/12/22 18:26:20;;;;;;;35.03;17.83;;;;;;;;;;4980595;28;20206;-87
2022/12/22 18:28:49;;;;;;;45.00;22.20;;;;;;;;;;4989985;28;20225;-89
2022/12/22 18:31:18;;;;;;;45.37;27.70;;;;;;;;;;4992638;28;20215;-89
2022/12/22 18:33:46;;;;;;;56.53;26.50;;;;;;;;;;5005712;28;20308;-89
2022/12/22 18:36:24;;;;;;;47.03;21.77;;;;;;;;;;4990607;28;20197;-88
2022/12/22 18:38:53;;;;;;;40.67;19.07;;;;;;;;;;4994460;28;20212;-88
2022/12/22 18:41:25;;;;;;;69.67;33.13;;;;;;;;;;4991784;28;20185;-89
2022/12/22 18:43:54;;;;;;;55.47;26.60;;;;;;;;;;4987054;28;20200;-89
2022/12/22 18:46:22;;;;;;;42.87;19.60;;;;;;;;;;4980006;28;20244;-89